Terminal Aerodrome Forecast
Issued by NWS

Home | Current Version | Previous Version | Text Only | Print | Product List | Glossary On
Versions: 1 2 3 4 5 6 7 8 9 10 11 12 13 14 15
000
FTUS44 KOUN 250520
TAFWWR
TAF
KWWR 250520Z 2506/2606 17018G23KT P6SM FEW050 BKN250
     FM250900 18014G21KT P6SM BKN015
     FM251300 19012KT P6SM FEW015
     FM251900 21015G22KT P6SM SKC
      AMD NOT SKED=

USA.gov is the U.S. government's official web portal to all federal, state and local government web resources and services.